createdAt,value
2019-05-10T00:00:27.733Z,29.63
2019-05-10T00:03:17.271Z,35.35
2019-05-10T00:06:06.477Z,33.65
2019-05-10T00:08:46.021Z,25.10
2019-05-10T00:11:37.158Z,23.50
2019-05-10T00:14:30.295Z,24.60
2019-05-10T00:17:03.530Z,20.12
2019-05-10T00:19:35.122Z,21.87
2019-05-10T00:22:06.538Z,21.37
2019-05-10T00:24:37.918Z,24.80
2019-05-10T00:27:09.363Z,24.37
2019-05-10T00:29:40.882Z,25.20
2019-05-10T00:32:12.299Z,29.35
2019-05-10T00:34:43.682Z,29.48
2019-05-10T00:37:15.224Z,31.52
2019-05-10T00:39:46.598Z,31.87
2019-05-10T00:42:18.069Z,32.83
2019-05-10T00:44:49.500Z,32.25
2019-05-10T00:47:20.897Z,36.65
2019-05-10T00:49:52.259Z,38.02
2019-05-10T00:52:23.606Z,35.95
2019-05-10T00:54:55.118Z,39.30
2019-05-10T00:57:26.402Z,41.23
2019-05-10T00:59:57.763Z,39.73
2019-05-10T01:02:29.150Z,37.13
2019-05-10T01:05:00.601Z,37.03
2019-05-10T01:07:31.978Z,34.48
2019-05-10T01:10:04.442Z,38.20
2019-05-10T01:12:35.814Z,35.45
2019-05-10T01:15:08.101Z,32.13
2019-05-10T01:17:39.441Z,30.12
2019-05-10T01:20:10.847Z,28.90
2019-05-10T01:22:42.258Z,29.23
2019-05-10T01:25:13.619Z,28.17
2019-05-10T01:27:46.016Z,24.65
2019-05-10T01:30:17.612Z,19.48
2019-05-10T01:32:49.229Z,17.70
2019-05-10T01:35:20.590Z,17.65
2019-05-10T01:37:51.930Z,20.10
2019-05-10T01:40:23.325Z,19.50
2019-05-10T01:42:54.682Z,20.00
2019-05-10T01:45:25.978Z,20.00
2019-05-10T01:47:57.443Z,20.97
2019-05-10T01:50:28.855Z,21.60
2019-05-10T01:53:00.219Z,20.85
2019-05-10T01:58:02.178Z,23.92
2019-05-10T02:00:33.604Z,23.92
2019-05-10T02:03:04.981Z,27.32
2019-05-10T02:05:36.416Z,22.55
2019-05-10T03:34:15.954Z,8.88
2019-05-10T03:36:47.301Z,8.63
2019-05-10T03:39:18.672Z,8.45
2019-05-10T03:41:50.036Z,9.40
2019-05-10T03:44:21.491Z,9.55
2019-05-10T03:46:54.333Z,11.03
2019-05-10T03:49:25.694Z,9.45
2019-05-10T03:51:57.100Z,9.60
2019-05-10T03:54:28.492Z,10.15
2019-05-10T03:57:12.382Z,10.78
2019-05-10T03:59:32.901Z,10.58
2019-05-10T04:02:04.241Z,9.30
2019-05-10T04:04:35.643Z,8.53
2019-05-10T04:07:07.134Z,9.38
2019-05-10T04:12:08.811Z,8.90
2019-05-10T04:14:40.173Z,8.75
2019-05-10T04:17:11.499Z,9.38
2019-05-10T04:19:42.872Z,11.43
2019-05-10T04:22:16.659Z,10.95
2019-05-10T04:24:48.020Z,10.68
2019-05-10T04:27:31.656Z,10.80
2019-05-10T04:29:52.369Z,9.40
2019-05-10T04:32:23.696Z,11.48
2019-05-10T04:34:55.075Z,13.03
2019-05-10T04:37:26.482Z,14.33
2019-05-10T04:39:57.840Z,16.65
2019-05-10T04:42:29.237Z,18.95
2019-05-10T04:45:00.619Z,20.32
2019-05-10T04:47:31.997Z,22.82
2019-05-10T04:50:03.480Z,25.40
2019-05-10T04:52:34.880Z,25.82
2019-05-10T04:55:07.165Z,27.70
2019-05-10T04:57:49.769Z,23.57
2019-05-10T05:00:11.756Z,24.23
2019-05-10T05:05:13.414Z,22.25
2019-05-10T05:07:45.245Z,24.87
2019-05-10T05:10:16.702Z,24.32
2019-05-10T05:12:48.963Z,21.00
2019-05-10T05:15:21.481Z,23.32
2019-05-10T05:17:52.835Z,26.33
2019-05-10T05:20:24.407Z,29.50
2019-05-10T05:22:55.727Z,23.65
2019-05-10T05:25:27.107Z,23.05
2019-05-10T05:28:07.464Z,31.57
2019-05-10T05:30:31.508Z,30.02
2019-05-10T05:33:02.821Z,30.02
2019-05-10T05:35:34.214Z,31.40
2019-05-10T05:38:05.560Z,25.40
2019-05-10T05:40:37.052Z,24.15
2019-05-10T05:43:09.838Z,24.92
2019-05-10T05:45:41.695Z,27.25
2019-05-10T05:48:16.056Z,30.30
2019-05-10T05:50:46.314Z,24.60
2019-05-10T07:30:41.294Z,11.03
2019-05-10T07:33:37.251Z,10.68
2019-05-10T07:36:15.180Z,8.90
2019-05-10T07:38:53.886Z,8.18
2019-05-10T07:41:28.948Z,9.63
2019-05-10T07:44:00.558Z,6.87
2019-05-10T07:46:31.589Z,6.53
2019-05-10T07:54:06.394Z,7.28
2019-05-10T07:56:39.076Z,8.10
2019-05-10T07:59:16.341Z,9.75
2019-05-10T08:01:48.462Z,8.05
2019-05-10T08:04:19.693Z,7.67
2019-05-10T08:06:51.953Z,6.37
2019-05-10T08:09:23.590Z,5.90
2019-05-10T08:12:03.310Z,5.97
2019-05-10T08:14:29.159Z,5.20
2019-05-10T08:17:05.772Z,5.28
2019-05-10T08:19:37.517Z,6.00
2019-05-10T08:22:09.375Z,5.87
2019-05-10T08:24:46.428Z,5.42
2019-05-10T08:27:17.414Z,6.17
2019-05-10T08:29:52.874Z,6.28
2019-05-10T08:32:25.475Z,18.23
2019-05-10T08:34:55.955Z,5.85
2019-05-10T08:37:35.965Z,6.92
2019-05-10T08:40:03.175Z,8.85
2019-05-10T08:42:44.205Z,3.10
2019-05-10T08:45:09.028Z,4.28
2019-05-10T08:47:42.562Z,6.78
2019-05-10T08:50:29.198Z,4.25
2019-05-10T08:52:46.554Z,3.92
2019-05-10T08:55:17.736Z,4.28
2019-05-10T08:57:49.520Z,3.80
2019-05-10T09:00:40.166Z,11.18
2019-05-10T09:02:53.905Z,4.60
2019-05-10T09:05:28.779Z,4.90
2019-05-10T09:07:58.223Z,4.47
2019-05-10T09:10:32.327Z,5.45
2019-05-10T09:13:03.923Z,5.67
2019-05-10T09:15:35.297Z,5.75
2019-05-10T09:18:07.593Z,6.90
2019-05-10T09:20:42.413Z,6.33
2019-05-10T09:23:18.653Z,7.87
2019-05-10T09:25:47.989Z,7.25
2019-05-10T09:28:19.302Z,5.28
2019-05-10T09:40:25.529Z,3.55
2019-05-10T09:42:59.423Z,4.60
2019-05-10T09:45:32.269Z,4.22
2019-05-10T09:48:02.767Z,4.08
2019-05-10T09:50:41.337Z,3.22
2019-05-10T09:53:09.482Z,3.15
2019-05-10T09:55:45.571Z,5.80
2019-05-10T09:58:21.762Z,3.50
2019-05-10T10:00:48.786Z,4.22
2019-05-10T10:03:21.737Z,4.53
2019-05-10T10:05:55.160Z,3.67
2019-05-10T10:08:28.815Z,3.70
2019-05-10T10:11:13.485Z,3.90
2019-05-10T10:13:59.208Z,3.08
2019-05-10T10:16:31.343Z,3.85
2019-05-10T10:19:02.579Z,3.77
2019-05-10T10:21:35.529Z,4.55
2019-05-10T10:24:15.665Z,3.37
2019-05-10T10:26:39.815Z,4.33
2019-05-10T10:29:11.064Z,2.77
2019-05-10T10:31:51.079Z,2.72
2019-05-10T10:34:17.364Z,2.50
2019-05-10T10:36:48.275Z,3.10
2019-05-10T10:39:22.803Z,2.50
2019-05-10T10:41:52.509Z,2.90
2019-05-10T10:44:23.724Z,2.80
2019-05-10T10:46:54.988Z,2.98
2019-05-10T10:49:27.981Z,3.30
2019-05-10T10:51:59.408Z,2.98
2019-05-10T10:57:02.753Z,2.00
2019-05-10T10:59:33.942Z,3.80
2019-05-10T11:02:31.614Z,4.53
2019-05-10T11:04:49.413Z,4.15
2019-05-10T11:07:25.162Z,3.90
2019-05-10T11:10:22.464Z,4.55
2019-05-10T11:13:18.307Z,4.50
2019-05-10T11:15:44.044Z,3.98
2019-05-10T11:20:49.439Z,3.20
2019-05-10T11:23:24.511Z,2.50
2019-05-10T11:25:56.436Z,3.02
2019-05-10T11:28:30.136Z,3.47
2019-05-10T11:31:01.178Z,2.30
2019-05-10T11:33:33.984Z,2.90
2019-05-10T11:36:08.577Z,3.15
2019-05-10T11:38:38.307Z,3.40
2019-05-10T11:41:13.560Z,3.98
2019-05-10T11:43:43.054Z,5.20
2019-05-10T11:46:14.339Z,4.70
2019-05-10T11:48:45.567Z,5.60
2019-05-10T11:51:17.586Z,2.83
2019-05-10T11:53:54.581Z,3.00
2019-05-10T11:56:28.448Z,3.17
2019-05-10T11:59:02.592Z,3.17
2019-05-10T12:01:41.203Z,2.60
2019-05-10T12:04:13.043Z,3.05
2019-05-10T12:06:50.099Z,2.80
2019-05-10T12:09:14.975Z,2.70
2019-05-10T12:11:51.914Z,2.62
2019-05-10T12:14:21.890Z,2.90
2019-05-10T12:16:54.654Z,2.35
2019-05-10T12:19:36.620Z,2.50
2019-05-10T12:22:04.726Z,3.00
2019-05-10T12:24:46.669Z,3.33
2019-05-10T12:27:18.700Z,2.80
2019-05-10T12:29:40.929Z,3.02
2019-05-10T12:32:14.621Z,2.95
2019-05-10T12:34:51.969Z,2.90
2019-05-10T12:37:20.273Z,3.98
2019-05-10T12:39:53.178Z,3.35
2019-05-10T12:42:27.106Z,3.20
2019-05-10T12:44:58.358Z,2.77
2019-05-10T12:47:30.568Z,2.45
2019-05-10T12:50:03.559Z,3.00
2019-05-10T12:52:35.039Z,3.33
2019-05-10T12:55:09.030Z,3.45
2019-05-10T12:57:43.069Z,2.80
2019-05-10T13:00:17.411Z,2.83
2019-05-10T13:02:53.641Z,2.27
2019-05-10T13:05:31.875Z,2.55
2019-05-10T13:08:00.046Z,3.30
2019-05-10T13:10:31.422Z,2.80
2019-05-10T13:13:04.524Z,2.25
2019-05-10T13:15:44.306Z,4.15
2019-05-10T13:18:17.466Z,7.35
2019-05-10T13:20:52.210Z,2.70
2019-05-10T13:23:23.403Z,2.30
2019-05-10T13:26:02.313Z,2.30
2019-05-10T13:28:44.794Z,2.45
2019-05-10T13:31:23.255Z,2.58
2019-05-10T13:33:54.503Z,2.45
2019-05-10T13:39:36.771Z,2.05
2019-05-10T13:42:09.722Z,2.30
2019-05-10T13:44:42.908Z,2.22
2019-05-10T13:47:14.221Z,2.87
2019-05-10T13:49:48.962Z,2.90
2019-05-10T13:52:37.714Z,2.90
2019-05-10T13:55:12.058Z,2.50
2019-05-10T13:57:43.662Z,2.47
2019-05-10T14:00:15.779Z,2.30
2019-05-10T14:02:47.133Z,2.92
2019-05-10T14:08:47.995Z,5.12
2019-05-10T14:11:15.230Z,7.72
2019-05-10T14:16:19.911Z,2.70
2019-05-10T14:21:57.758Z,3.67
2019-05-10T14:24:41.505Z,4.00
2019-05-10T14:27:16.406Z,3.67
2019-05-10T14:29:47.834Z,3.85
2019-05-10T14:32:20.168Z,2.72
2019-05-10T14:34:51.512Z,4.80
2019-05-10T14:37:22.761Z,3.50
2019-05-10T14:39:55.154Z,3.58
2019-05-10T14:42:31.195Z,2.83
2019-05-10T14:44:59.558Z,2.70
2019-05-10T14:47:30.835Z,3.20
2019-05-10T14:50:02.203Z,3.47
2019-05-10T14:55:06.335Z,3.60
2019-05-10T14:57:38.811Z,3.30
2019-05-10T15:00:11.183Z,3.72
2019-05-10T15:05:15.755Z,4.22
2019-05-10T15:07:46.162Z,4.28
2019-05-10T15:10:17.436Z,4.72
2019-05-10T15:12:48.748Z,5.37
2019-05-10T15:15:20.843Z,5.62
2019-05-10T15:20:24.521Z,5.70
2019-05-10T15:22:55.860Z,5.40
2019-05-10T15:25:27.165Z,5.42
2019-05-10T15:28:00.406Z,5.85
2019-05-10T15:30:31.474Z,6.92
2019-05-10T15:35:33.293Z,7.22
2019-05-10T15:38:04.581Z,6.90
2019-05-10T15:40:38.756Z,6.33
2019-05-10T15:43:10.622Z,5.97
2019-05-10T15:45:45.926Z,5.62
2019-05-10T15:48:15.868Z,6.33
2019-05-10T15:50:47.056Z,6.17
2019-05-10T15:53:19.350Z,6.03
2019-05-10T15:55:51.393Z,6.42
2019-05-10T15:58:23.705Z,6.78
2019-05-10T16:00:54.984Z,6.53
2019-05-10T16:03:26.255Z,6.30
2019-05-10T16:06:00.921Z,6.62
2019-05-10T16:08:32.029Z,6.12
2019-05-10T16:11:18.058Z,6.70
2019-05-10T16:13:39.204Z,6.65
2019-05-10T16:18:41.794Z,6.67
2019-05-10T16:21:15.096Z,6.67
2019-05-10T16:23:48.383Z,6.92
2019-05-10T16:26:23.094Z,6.33
2019-05-10T16:29:01.754Z,6.28
2019-05-10T16:31:28.948Z,6.90
2019-05-10T16:34:00.550Z,6.70
2019-05-10T16:39:02.730Z,6.35
2019-05-10T16:41:35.695Z,6.60
2019-05-10T16:46:37.590Z,6.22
2019-05-10T16:49:10.097Z,7.05
2019-05-10T16:51:42.298Z,6.22
2019-05-10T16:54:24.695Z,7.15
2019-05-10T16:56:51.614Z,9.28
2019-05-10T16:59:24.269Z,7.30
2019-05-10T17:02:03.577Z,7.12
2019-05-10T17:04:31.924Z,7.12
2019-05-10T17:07:12.786Z,7.50
2019-05-10T17:09:44.539Z,7.33
2019-05-10T17:12:15.908Z,8.28
2019-05-10T17:14:50.585Z,8.23
2019-05-10T17:20:19.794Z,7.62
2019-05-10T17:22:51.471Z,8.80
2019-05-10T17:25:24.967Z,8.60
2019-05-10T17:27:59.828Z,8.83
2019-05-10T17:30:29.717Z,11.12
2019-05-10T17:33:04.117Z,11.65
2019-05-10T17:35:36.524Z,14.50
2019-05-10T17:38:13.926Z,11.18
2019-05-10T17:40:42.326Z,9.68
2019-05-10T17:43:20.410Z,11.30
2019-05-10T17:45:47.319Z,9.85
2019-05-10T17:48:18.695Z,8.53
2019-05-10T17:50:50.028Z,8.23
2019-05-10T17:53:33.105Z,7.92
2019-05-10T17:56:06.149Z,7.08
2019-05-10T18:01:08.291Z,7.65
2019-05-10T18:06:23.640Z,8.00
2019-05-10T18:08:45.894Z,8.00
2019-05-10T18:11:19.566Z,8.40
2019-05-10T18:16:21.829Z,9.38
2019-05-10T18:26:00.947Z,10.00
2019-05-10T18:28:34.439Z,10.53
2019-05-10T18:33:36.584Z,12.13
2019-05-10T18:36:12.787Z,13.75
2019-05-10T18:38:44.357Z,11.90
2019-05-10T18:43:46.417Z,13.78
2019-05-10T18:46:19.680Z,14.45
2019-05-10T18:48:52.693Z,15.60
2019-05-10T18:51:26.316Z,14.63
2019-05-10T18:53:58.345Z,13.90
2019-05-10T18:56:31.409Z,14.53
2019-05-10T18:59:07.370Z,14.83
2019-05-10T19:01:38.874Z,15.70
2019-05-10T19:04:14.003Z,14.60
2019-05-10T19:06:44.278Z,16.12
2019-05-10T19:09:16.033Z,15.05
2019-05-10T19:11:50.520Z,15.93
2019-05-10T19:14:23.799Z,16.10
2019-05-10T19:16:55.136Z,17.17
2019-05-10T19:21:57.215Z,16.95
2019-05-10T19:24:30.414Z,16.30
2019-05-10T19:27:07.340Z,18.48
2019-05-10T19:29:45.597Z,18.02
2019-05-10T19:32:17.582Z,17.25
2019-05-10T19:34:48.496Z,18.30
2019-05-10T19:37:29.847Z,18.42
2019-05-10T19:39:50.848Z,18.20
2019-05-10T19:42:22.280Z,17.82
2019-05-10T19:44:54.978Z,16.82
2019-05-10T19:47:27.984Z,15.90
2019-05-10T19:50:02.759Z,15.20
2019-05-10T19:52:34.294Z,15.18
2019-05-10T19:57:36.232Z,14.30
2019-05-10T20:00:07.699Z,13.18
2019-05-10T20:05:09.587Z,13.58
2019-05-10T20:07:45.772Z,14.10
2019-05-10T20:10:14.235Z,13.90
2019-05-10T20:15:16.175Z,12.65
2019-05-10T20:17:47.623Z,12.88
2019-05-10T20:20:18.967Z,13.88
2019-05-10T20:22:50.411Z,12.60
2019-05-10T20:25:21.810Z,13.08
2019-05-10T20:27:53.188Z,13.00
2019-05-10T20:30:24.601Z,13.85
2019-05-10T20:32:56.108Z,11.63
2019-05-10T20:35:27.447Z,12.73
2019-05-10T20:38:02.154Z,12.40
2019-05-10T20:40:32.467Z,11.75
2019-05-10T20:43:03.840Z,13.00
2019-05-10T20:45:35.375Z,11.53
2019-05-10T20:48:06.807Z,12.50
2019-05-10T20:50:38.268Z,12.58
2019-05-10T20:53:09.618Z,13.08
2019-05-10T20:55:41.016Z,13.38
2019-05-10T20:58:12.428Z,13.05
2019-05-10T21:00:43.956Z,11.38
2019-05-10T21:03:15.303Z,11.93
2019-05-10T21:05:47.628Z,11.53
2019-05-10T21:08:19.051Z,11.30
2019-05-10T21:10:50.446Z,11.22
2019-05-10T21:13:21.776Z,12.88
2019-05-10T21:15:53.178Z,12.15
2019-05-10T21:18:24.576Z,12.18
2019-05-10T21:20:56.108Z,11.18
2019-05-10T21:23:27.496Z,11.97
2019-05-10T21:25:59.989Z,10.15
2019-05-10T21:28:31.401Z,11.95
2019-05-10T21:31:02.908Z,12.25
2019-05-10T21:33:34.247Z,11.95
2019-05-10T21:36:05.607Z,10.40
2019-05-10T21:38:36.966Z,10.35
2019-05-10T21:41:08.375Z,11.30
2019-05-10T21:43:39.729Z,11.65
2019-05-10T21:46:11.111Z,11.03
2019-05-10T21:48:42.523Z,11.97
2019-05-10T21:51:13.877Z,11.10
2019-05-10T21:53:45.275Z,12.58
2019-05-10T21:56:16.631Z,12.07
2019-05-10T21:58:48.017Z,11.73
2019-05-10T22:01:19.501Z,11.85
2019-05-10T22:03:50.838Z,11.78
2019-05-10T22:06:22.226Z,13.00
2019-05-10T22:08:53.591Z,12.00
2019-05-10T22:11:25.149Z,12.55
2019-05-10T22:16:26.933Z,12.07
2019-05-10T22:19:02.659Z,12.82
2019-05-10T22:21:34.006Z,11.35
2019-05-10T22:24:08.459Z,11.60
2019-05-10T22:26:39.905Z,12.45
2019-05-10T22:29:11.368Z,10.80
2019-05-10T22:31:43.685Z,10.18
2019-05-10T22:36:45.766Z,11.48
2019-05-10T22:39:17.096Z,10.78
2019-05-10T22:41:48.520Z,10.55
2019-05-10T22:44:19.923Z,10.58
2019-05-10T22:46:51.318Z,10.58
2019-05-10T22:49:22.817Z,10.15
2019-05-10T22:51:55.273Z,10.65
2019-05-10T22:54:26.611Z,9.48
2019-05-10T22:56:58.057Z,11.22
2019-05-10T22:59:29.465Z,10.38
2019-05-10T23:02:01.819Z,10.50
2019-05-10T23:04:33.335Z,11.22
2019-05-10T23:07:04.721Z,10.55
2019-05-10T23:09:36.098Z,11.20
2019-05-10T23:12:07.467Z,11.35
2019-05-10T23:14:38.941Z,13.03
2019-05-10T23:17:10.357Z,12.63
2019-05-10T23:19:41.692Z,11.30
2019-05-10T23:22:13.048Z,11.70
2019-05-10T23:24:44.372Z,10.95
2019-05-10T23:27:15.856Z,12.15
2019-05-10T23:29:47.163Z,12.25
2019-05-10T23:32:18.544Z,12.78
2019-05-10T23:34:49.864Z,14.33
2019-05-10T23:37:21.239Z,13.40
2019-05-10T23:39:52.623Z,14.58
2019-05-10T23:42:24.122Z,15.95
2019-05-10T23:44:55.495Z,16.62
2019-05-10T23:47:26.864Z,15.43
2019-05-10T23:49:59.477Z,14.80
2019-05-10T23:52:30.832Z,15.03
2019-05-10T23:55:02.282Z,14.40
2019-05-10T23:57:33.687Z,13.65
